createdAt,value
2018-08-03T00:00:27.242Z,99.90
2018-08-03T00:04:35.486Z,99.90
2018-08-03T00:08:44.579Z,99.90
2018-08-03T00:12:52.866Z,99.90
2018-08-03T00:17:01.937Z,99.90
2018-08-03T00:21:10.193Z,99.90
2018-08-03T00:25:18.492Z,99.90
2018-08-03T00:29:26.782Z,99.90
2018-08-03T00:33:35.022Z,99.90
2018-08-03T00:37:43.286Z,99.90
2018-08-03T00:41:51.537Z,99.90
2018-08-03T00:46:00.316Z,99.90
2018-08-03T00:50:09.646Z,99.90
2018-08-03T00:54:17.902Z,99.90
2018-08-03T00:58:26.185Z,99.90
2018-08-03T01:02:34.437Z,99.90
2018-08-03T01:06:42.697Z,99.90
2018-08-03T01:10:50.965Z,99.90
2018-08-03T01:15:00.193Z,99.90
2018-08-03T01:19:09.817Z,99.90
2018-08-03T01:23:18.078Z,99.90
2018-08-03T01:27:26.352Z,99.90
2018-08-03T01:31:34.641Z,99.90
2018-08-03T01:35:42.929Z,99.90
2018-08-03T01:39:51.356Z,99.90
2018-08-03T01:44:00.295Z,99.90
2018-08-03T01:48:09.639Z,99.90
2018-08-03T01:52:17.909Z,99.90
2018-08-03T01:56:26.152Z,99.90
2018-08-03T02:00:34.416Z,99.90
2018-08-03T02:04:42.710Z,99.90
2018-08-03T02:08:50.999Z,99.90
2018-08-03T02:13:00.177Z,99.90
2018-08-03T02:17:09.936Z,99.90
2018-08-03T02:21:18.198Z,99.90
2018-08-03T02:25:26.530Z,99.90
2018-08-03T02:29:34.845Z,99.90
2018-08-03T02:33:43.112Z,99.90
2018-08-03T02:37:51.479Z,99.90
2018-08-03T02:42:00.384Z,99.90
2018-08-03T02:46:09.378Z,99.90
2018-08-03T02:50:17.662Z,99.90
2018-08-03T02:54:25.959Z,99.90
2018-08-03T02:58:34.258Z,99.90
2018-08-03T03:02:42.575Z,99.90
2018-08-03T03:06:50.835Z,99.90
2018-08-03T03:10:59.505Z,99.90
2018-08-03T03:15:08.690Z,99.90
2018-08-03T03:19:17.010Z,99.90
2018-08-03T03:23:25.289Z,99.90
2018-08-03T03:27:33.552Z,99.90
2018-08-03T03:31:41.863Z,99.90
2018-08-03T03:35:50.120Z,99.90
2018-08-03T03:39:58.404Z,99.90
2018-08-03T03:44:06.699Z,99.90
2018-08-03T03:48:15.040Z,99.90
2018-08-03T03:52:23.311Z,99.90
2018-08-03T03:56:32.850Z,99.90
2018-08-03T04:00:41.130Z,99.90
2018-08-03T04:04:49.412Z,99.90
2018-08-03T04:08:57.694Z,99.90
2018-08-03T04:13:06.149Z,99.90
2018-08-03T04:17:14.463Z,99.90
2018-08-03T04:21:22.761Z,99.90
2018-08-03T04:25:31.875Z,99.90
2018-08-03T04:29:40.134Z,99.90
2018-08-03T04:33:48.523Z,99.90
2018-08-03T04:37:56.768Z,99.90
2018-08-03T04:42:05.089Z,99.90
2018-08-03T04:50:21.318Z,99.90
2018-08-03T04:54:31.027Z,99.90
2018-08-03T04:58:40.721Z,99.90
2018-08-03T05:02:48.973Z,99.90
2018-08-03T05:06:57.232Z,99.90
2018-08-03T05:11:05.503Z,99.90
2018-08-03T05:15:13.765Z,99.90
2018-08-03T05:19:22.038Z,99.90
2018-08-03T05:23:30.352Z,99.90
2018-08-03T05:27:39.875Z,99.90
2018-08-03T05:31:48.133Z,99.90
2018-08-03T05:35:56.883Z,99.90
2018-08-03T05:40:05.614Z,99.90
2018-08-03T05:44:13.921Z,99.90
2018-08-03T05:48:22.168Z,99.90
2018-08-03T05:52:31.242Z,99.90
2018-08-03T05:56:40.783Z,99.90
2018-08-03T06:00:49.036Z,99.90
2018-08-03T06:04:57.328Z,99.90
2018-08-03T06:09:09.092Z,99.90
2018-08-03T06:13:17.378Z,99.90
2018-08-03T06:17:25.684Z,99.90
2018-08-03T06:21:33.993Z,99.90
2018-08-03T06:25:42.265Z,99.90
2018-08-03T06:29:50.539Z,99.90
2018-08-03T06:33:59.596Z,99.90
2018-08-03T06:38:09.193Z,99.90
2018-08-03T06:42:17.413Z,99.90
2018-08-03T06:46:25.677Z,99.90
2018-08-03T06:50:33.929Z,99.90
2018-08-03T06:54:42.194Z,99.90
2018-08-03T06:58:50.460Z,99.90
2018-08-03T07:02:58.809Z,99.90
2018-08-03T07:07:09.176Z,99.90
2018-08-03T07:11:17.409Z,99.90
2018-08-03T07:15:25.672Z,99.90
2018-08-03T07:19:33.900Z,99.90
2018-08-03T07:23:42.232Z,99.90
2018-08-03T07:27:50.488Z,99.90
2018-08-03T07:31:58.725Z,99.90
2018-08-03T07:36:08.166Z,99.90
2018-08-03T07:40:16.504Z,99.90
2018-08-03T07:44:24.824Z,99.90
2018-08-03T07:48:33.104Z,99.90
2018-08-03T07:52:41.394Z,99.90
2018-08-03T07:56:49.680Z,99.90
2018-08-03T08:00:58.099Z,99.90
2018-08-03T08:05:06.549Z,99.90
2018-08-03T08:09:14.803Z,99.90
2018-08-03T08:13:23.092Z,99.90
2018-08-03T08:17:32.368Z,99.90
2018-08-03T08:21:40.663Z,99.90
2018-08-03T08:25:48.977Z,99.90
2018-08-03T08:29:57.526Z,99.90
2018-08-03T08:34:05.804Z,99.90
2018-08-03T08:38:14.092Z,99.90
2018-08-03T08:42:22.384Z,99.90
2018-08-03T08:46:31.629Z,99.90
2018-08-03T08:50:40.774Z,99.90
2018-08-03T08:54:49.126Z,99.90
2018-08-03T08:58:57.329Z,99.90
2018-08-03T09:03:05.903Z,99.90
2018-08-03T09:07:14.165Z,99.90
2018-08-03T09:11:22.428Z,99.90
2018-08-03T09:15:31.642Z,99.90
2018-08-03T09:19:41.311Z,99.90
2018-08-03T09:23:49.558Z,99.90
2018-08-03T09:27:57.841Z,99.90
2018-08-03T09:32:06.134Z,99.90
2018-08-03T09:36:14.376Z,99.90
2018-08-03T09:48:40.425Z,99.90
2018-08-03T09:52:48.719Z,99.90
2018-08-03T09:56:57.016Z,99.90
2018-08-03T10:01:10.380Z,99.90
2018-08-03T10:05:18.656Z,99.90
2018-08-03T10:09:26.918Z,99.90
2018-08-03T10:13:35.208Z,99.90
2018-08-03T10:17:43.558Z,99.90
2018-08-03T10:21:52.165Z,99.90
2018-08-03T10:26:02.045Z,99.90
2018-08-03T10:30:10.338Z,99.90
2018-08-03T10:34:18.617Z,99.90
2018-08-03T10:38:26.844Z,99.00
2018-08-03T10:42:35.104Z,98.80
2018-08-03T10:46:43.516Z,98.40
2018-08-03T10:50:51.775Z,98.00
2018-08-03T10:55:00.537Z,97.90
2018-08-03T10:59:09.781Z,97.60
2018-08-03T11:03:18.037Z,97.50
2018-08-03T11:07:26.298Z,96.40
2018-08-03T11:11:34.568Z,95.20
2018-08-03T11:15:42.797Z,95.80
2018-08-03T11:19:51.053Z,95.40
2018-08-03T11:24:00.463Z,95.90
2018-08-03T11:28:09.528Z,95.90
2018-08-03T11:32:17.839Z,94.30
2018-08-03T11:36:26.130Z,93.20
2018-08-03T11:40:34.347Z,93.20
2018-08-03T11:44:42.575Z,93.10
2018-08-03T11:48:50.881Z,92.20
2018-08-03T11:52:59.161Z,90.70
2018-08-03T11:57:07.425Z,93.10
2018-08-03T12:01:16.003Z,91.00
2018-08-03T12:05:24.319Z,89.40
2018-08-03T12:09:32.623Z,88.30
2018-08-03T12:13:40.947Z,86.80
2018-08-03T12:17:49.272Z,89.90
2018-08-03T12:21:57.543Z,86.20
2018-08-03T12:26:05.803Z,83.30
2018-08-03T12:30:14.314Z,83.20
2018-08-03T12:38:31.294Z,83.10
2018-08-03T12:42:40.923Z,80.30
2018-08-03T12:46:49.177Z,80.20
2018-08-03T12:50:57.395Z,77.70
2018-08-03T12:55:05.709Z,79.10
2018-08-03T12:59:14.001Z,77.20
2018-08-03T13:03:22.265Z,75.80
2018-08-03T13:07:30.719Z,79.00
2018-08-03T13:11:40.050Z,78.60
2018-08-03T13:15:48.297Z,77.90
2018-08-03T13:19:56.611Z,77.00
2018-08-03T13:24:05.025Z,78.20
2018-08-03T13:28:13.287Z,75.80
2018-08-03T13:32:21.557Z,76.20
2018-08-03T13:36:33.759Z,75.70
2018-08-03T13:40:42.040Z,75.60
2018-08-03T13:44:50.286Z,75.60
2018-08-03T13:48:58.594Z,73.90
2018-08-03T13:53:06.853Z,71.90
2018-08-03T13:57:15.144Z,72.20
2018-08-03T14:01:34.780Z,74.50
2018-08-03T14:05:43.017Z,76.20
2018-08-03T14:09:51.298Z,72.00
2018-08-03T14:14:01.120Z,72.10
2018-08-03T14:18:09.376Z,74.00
2018-08-03T14:22:17.746Z,72.30
2018-08-03T14:26:25.972Z,70.00
2018-08-03T14:30:34.233Z,70.60
2018-08-03T14:34:42.520Z,70.50
2018-08-03T14:38:50.827Z,69.50
2018-08-03T14:42:59.184Z,71.10
2018-08-03T14:47:07.469Z,69.00
2018-08-03T14:51:15.757Z,70.70
2018-08-03T14:55:24.108Z,68.20
2018-08-03T14:59:32.466Z,68.90
2018-08-03T15:03:40.775Z,68.80
2018-08-03T15:07:49.095Z,67.70
2018-08-03T15:11:57.297Z,66.60
2018-08-03T15:16:05.721Z,66.70
2018-08-03T15:20:13.975Z,67.60
2018-08-03T15:24:22.258Z,69.60
2018-08-03T15:28:30.509Z,66.20
2018-08-03T15:32:38.778Z,67.00
2018-08-03T15:36:47.096Z,65.80
2018-08-03T15:40:55.455Z,67.40
2018-08-03T15:45:03.736Z,65.70
2018-08-03T15:49:11.989Z,67.10
2018-08-03T15:53:20.426Z,68.90
2018-08-03T15:57:28.695Z,66.60
2018-08-03T16:01:36.957Z,66.20
2018-08-03T16:05:45.228Z,66.50
2018-08-03T16:09:53.511Z,66.20
2018-08-03T16:14:01.754Z,65.80
2018-08-03T16:18:10.203Z,66.00
2018-08-03T16:22:18.544Z,66.20
2018-08-03T16:26:26.815Z,64.90
2018-08-03T16:30:35.112Z,67.50
2018-08-03T16:34:43.396Z,67.70
2018-08-03T16:38:51.715Z,67.40
2018-08-03T16:43:00.051Z,66.60
2018-08-03T16:47:08.768Z,65.20
2018-08-03T16:51:17.009Z,65.60
2018-08-03T16:55:25.355Z,66.80
2018-08-03T16:59:33.629Z,66.80
2018-08-03T17:03:41.905Z,66.70
2018-08-03T17:07:50.172Z,65.60
2018-08-03T17:11:58.469Z,67.80
2018-08-03T17:16:07.137Z,68.00
2018-08-03T17:20:15.408Z,66.30
2018-08-03T17:24:23.708Z,66.40
2018-08-03T17:28:31.961Z,65.90
2018-08-03T17:32:40.265Z,67.90
2018-08-03T17:36:48.616Z,66.60
2018-08-03T17:40:56.920Z,67.20
2018-08-03T17:45:05.700Z,67.30
2018-08-03T17:49:14.044Z,66.70
2018-08-03T17:53:22.375Z,67.20
2018-08-03T17:57:30.643Z,67.80
2018-08-03T18:01:38.924Z,66.90
2018-08-03T18:05:47.254Z,68.40
2018-08-03T18:09:55.682Z,69.00
2018-08-03T18:14:04.083Z,68.70
2018-08-03T18:18:12.441Z,68.20
2018-08-03T18:22:20.742Z,68.70
2018-08-03T18:26:28.998Z,68.80
2018-08-03T18:30:37.301Z,69.60
2018-08-03T18:34:45.573Z,70.80
2018-08-03T18:38:53.879Z,70.40
2018-08-03T18:43:02.178Z,69.90
2018-08-03T18:47:10.492Z,71.00
2018-08-03T18:51:18.879Z,72.10
2018-08-03T18:55:27.219Z,71.10
2018-08-03T18:59:35.592Z,72.10
2018-08-03T19:03:43.854Z,72.10
2018-08-03T19:07:52.244Z,73.10
2018-08-03T19:12:00.524Z,73.10
2018-08-03T19:16:08.798Z,74.30
2018-08-03T19:25:00.798Z,76.30
2018-08-03T19:29:09.048Z,76.30
2018-08-03T19:33:17.405Z,77.50
2018-08-03T19:37:26.846Z,78.10
2018-08-03T19:41:35.131Z,78.30
2018-08-03T19:45:43.367Z,78.40
2018-08-03T19:49:51.701Z,79.50
2018-08-03T19:54:00.616Z,87.10
2018-08-03T19:58:08.898Z,85.80
2018-08-03T20:06:25.849Z,86.40
2018-08-03T20:10:34.227Z,85.30
2018-08-03T20:14:42.514Z,82.90
2018-08-03T20:18:50.777Z,85.30
2018-08-03T20:23:00.334Z,85.70
2018-08-03T20:27:08.598Z,84.60
2018-08-03T20:31:16.863Z,82.10
2018-08-03T20:35:25.746Z,81.70
2018-08-03T20:39:34.079Z,78.70
2018-08-03T20:43:42.396Z,80.60
2018-08-03T20:47:50.653Z,83.80
2018-08-03T20:51:59.005Z,76.70
2018-08-03T20:56:07.234Z,80.00
2018-08-03T21:00:15.539Z,77.80
2018-08-03T21:04:23.839Z,79.20
2018-08-03T21:08:33.334Z,79.10
2018-08-03T21:12:41.597Z,81.20
2018-08-03T21:16:49.875Z,83.50
2018-08-03T21:20:58.254Z,78.00
2018-08-03T21:25:06.784Z,78.90
2018-08-03T21:29:15.059Z,78.90
2018-08-03T21:33:23.332Z,79.00
2018-08-03T21:37:32.778Z,85.80
2018-08-03T21:41:41.328Z,82.20
2018-08-03T21:45:49.679Z,85.50
2018-08-03T21:49:58.727Z,87.50
2018-08-03T21:54:07.411Z,85.40
2018-08-03T21:58:15.710Z,87.20
2018-08-03T22:02:24.037Z,81.70
2018-08-03T22:06:33.696Z,81.40
2018-08-03T22:10:41.986Z,83.60
2018-08-03T22:14:50.460Z,83.10
2018-08-03T22:18:59.106Z,83.10
2018-08-03T22:23:07.693Z,83.30
2018-08-03T22:27:15.971Z,84.50
2018-08-03T22:31:24.276Z,88.50
2018-08-03T22:35:34.406Z,90.80
2018-08-03T22:39:42.644Z,92.00
2018-08-03T22:43:51.065Z,91.30
2018-08-03T22:47:59.368Z,90.50
2018-08-03T22:52:07.912Z,89.50
2018-08-03T22:56:16.247Z,91.30
2018-08-03T23:00:24.498Z,92.30
2018-08-03T23:04:33.040Z,92.00
2018-08-03T23:08:41.338Z,93.00
2018-08-03T23:12:49.733Z,93.10
2018-08-03T23:16:58.596Z,93.20
2018-08-03T23:21:07.047Z,93.20
2018-08-03T23:25:15.319Z,93.10
2018-08-03T23:29:23.748Z,93.30
2018-08-03T23:33:33.360Z,92.90
2018-08-03T23:37:41.662Z,93.00
2018-08-03T23:41:49.919Z,93.10
2018-08-03T23:45:58.252Z,94.00
2018-08-03T23:50:12.255Z,94.30
2018-08-03T23:54:20.577Z,94.90
2018-08-03T23:58:28.879Z,93.80
